Valley Village, California
Current Conditions -  °F | °C
As of 6:53 PM on Monday 22 Dec 2014 (Local Time) from KBUR Reporting Station
Clear Clear  
Wind Chill: 66°   Ceiling: Unl
Heat Index: 66°   Visibility: 10mi
Dew Point: 53°   Wind: 5mph
Humidity: 63%   Direction: 90°E
Pressure: 29.97"   Gusts: NA
Location:  34.17°N, 118.4°W
Report Text: KBUR 230253Z 09004KT 10SM CLR 19/12 A2997 RMK AO2 SLP139 T01890117 53007
Loading
Personal Weather Stations






























Interactive Weather Map New forecast layout! Learn more

10-Day Weather Forecast

Advertisements
Track Severe Weather on mobile